EREK1: Neosho River near Erie

                                SHEF ID:       EREK1     NEOSHO R NR ERIE, KS
STATION TYPE:

PRECIP STAGE RIV-FLOW BAT-LOAD
in ft cfs volt
Ccp-Rev Ccp-Rev Ccp-Rev Ccp-Rev
(America/Chicago)
02/20 00:00 ---- 15.18 4750 12.31
02/20 01:00 ---- 15.18 4750 12.27
02/20 02:00 ---- 15.23 4820 12.25
02/20 03:00 ---- 15.19 4760 12.23
02/20 04:00 ---- 15.24 4830 12.21
02/20 05:00 ---- 15.23 4820 12.17
02/20 06:00 ---- 15.24 4830 12.14
02/20 07:00 ---- 15.23 4820 12.13
02/20 08:00 ---- 15.22 4800 12.14
02/20 09:00 ---- 15.22 4800 12.33
02/20 10:00 ---- 15.18 4750 13.68
02/20 11:00 ---- 15.16 4720 13.83
02/20 12:00 ---- 15.20 4770 13.65
02/20 13:00 ---- 15.18 4750 13.60
02/20 14:00 ---- 15.15 4700 13.61
02/20 15:00 ---- 15.19 4760 13.55
02/20 16:00 ---- 15.18 4750 13.55
02/20 17:00 ---- 15.13 4680 13.65
02/20 18:00 ---- 15.18 4750 13.52
02/20 19:00 ---- 15.18 4750 12.83
02/20 20:00 ---- 15.17 4730 12.48
02/20 21:00 ---- 15.17 4730 12.40
02/20 22:00 ---- 15.18 4750 12.37
02/20 23:00 ---- 15.17 4730 12.34
Data processed at Sat 21Feb2026 05:23 GMT

NOTICE: If you are parsing this page

Please convert to using our Data API. Starting early 2026 we will be migrating to: https://water.usace.army.mil with modern pages rendered in JavaScript. When this migration completes you will no longer be able to scrape this page! CWMSDataAPI (CDA)

Timeseries IDs (TSIDs)

TSIDs used from left to right in the data table
ERIE.Precip-Inc.Total.1Hour.1Hour.Ccp-Rev
ERIE.Stage.Inst.1Hour.0.Ccp-Rev
ERIE.Flow.Inst.1Hour.0.Ccp-Rev
ERIE.Volt-Battery Load.Inst.1Hour.0.Ccp-Rev

                            

All information presented herein is the property of the government of the United States of America and may be revised or deleted at any time without prior notice. Dissemination of this information without the expressed written consent of the Public Affairs Office, Tulsa District U.S. Army Corps of Engineers is strictly prohibited. These data are gathered electronically and, as presented, have NOT undergone any form of quality control. These data are NOT guaranteed to be valid or correct.